AAL5636 KDCA-KPHL
Flight info
| Callsign | AAL5636 |
|---|---|
| Flight time | N/A |
| Altitude | 11000 |
| Route | DOCTR5 DOCTR ODESA |
| Aircraft | A319/M-SDE3FGHIRWY/LB1 |
Departure
| Time | 2026-05-06 02:28 |
|---|---|
| Airport | Ronald Reagan Washington National Airport (KDCA) |
Arrival
| Time | N/A |
|---|---|
| Airport | Philadelphia International Airport (KPHL) |
| Time | Latitude | Longitude | Altitude | Speed | Heading |
|---|---|---|---|---|---|
| 2026-05-06 02:04 | 38.85453 | -77.04085 | 24 ft | 0 kts | 242° |
| 2026-05-06 02:05 | 38.85455 | -77.04080 | 24 ft | 0 kts | 242° |
| 2026-05-06 02:18 | 38.85456 | -77.04079 | 26 ft | 2 kts | 242° |
| 2026-05-06 02:18 | 38.85463 | -77.04049 | 25 ft | 4 kts | 278° |
| 2026-05-06 02:18 | 38.85453 | -77.04019 | 28 ft | 4 kts | 318° |
| 2026-05-06 02:19 | 38.85435 | -77.04005 | 28 ft | 1 kts | 355° |
| 2026-05-06 02:19 | 38.85434 | -77.04005 | 28 ft | 0 kts | 355° |
| 2026-05-06 02:22 | 38.85439 | -77.04006 | 29 ft | 4 kts | 355° |
| 2026-05-06 02:22 | 38.85506 | -77.04015 | 24 ft | 12 kts | 347° |
| 2026-05-06 02:22 | 38.85566 | -77.03972 | 25 ft | 11 kts | 48° |
| 2026-05-06 02:22 | 38.85645 | -77.03966 | 27 ft | 12 kts | 357° |
| 2026-05-06 02:23 | 38.85729 | -77.03974 | 28 ft | 12 kts | 355° |
| 2026-05-06 02:23 | 38.85820 | -77.03982 | 26 ft | 14 kts | 356° |
| 2026-05-06 02:23 | 38.85928 | -77.03984 | 25 ft | 16 kts | 9° |
| 2026-05-06 02:23 | 38.86003 | -77.03955 | 25 ft | 1 kts | 16° |
| 2026-05-06 02:24 | 38.86004 | -77.03955 | 24 ft | 0 kts | 16° |
| 2026-05-06 02:27 | 38.86014 | -77.03951 | 24 ft | 6 kts | 16° |
| 2026-05-06 02:27 | 38.86075 | -77.03923 | 24 ft | 11 kts | 39° |
| 2026-05-06 02:27 | 38.86039 | -77.03860 | 24 ft | 16 kts | 173° |
| 2026-05-06 02:27 | 38.85772 | -77.03839 | 25 ft | 68 kts | 175° |
| 2026-05-06 02:28 | 38.85104 | -77.03773 | 26 ft | 124 kts | 175° |
| 2026-05-06 02:28 | 38.84156 | -77.03695 | 424 ft | 136 kts | 179° |
| 2026-05-06 02:28 | 38.83225 | -77.03572 | 1106 ft | 131 kts | 174° |
| 2026-05-06 02:28 | 38.82383 | -77.03379 | 1893 ft | 119 kts | 178° |
| 2026-05-06 02:29 | 38.81495 | -77.03178 | 2310 ft | 137 kts | 178° |
| 2026-05-06 02:29 | 38.80501 | -77.02972 | 2707 ft | 157 kts | 178° |
| 2026-05-06 02:29 | 38.79345 | -77.02732 | 3153 ft | 177 kts | 179° |
| 2026-05-06 02:29 | 38.78070 | -77.02473 | 3747 ft | 194 kts | 178° |
| 2026-05-06 02:30 | 38.76722 | -77.02144 | 4606 ft | 205 kts | 173° |
| 2026-05-06 02:30 | 38.75473 | -77.01124 | 5380 ft | 232 kts | 139° |
| 2026-05-06 02:30 | 38.74796 | -76.99077 | 6037 ft | 269 kts | 107° |
| 2026-05-06 02:30 | 38.74666 | -76.96581 | 6696 ft | 295 kts | 92° |
| 2026-05-06 02:31 | 38.75195 | -76.94031 | 7699 ft | 303 kts | 66° |
| 2026-05-06 02:31 | 38.76394 | -76.91696 | 8488 ft | 316 kts | 49° |
| 2026-05-06 02:31 | 38.77981 | -76.89744 | 9488 ft | 317 kts | 35° |
| 2026-05-06 02:31 | 38.79821 | -76.88195 | 10409 ft | 321 kts | 29° |
| 2026-05-06 02:32 | 38.81806 | -76.86615 | 10622 ft | 350 kts | 29° |
| 2026-05-06 02:32 | 38.83917 | -76.84876 | 10864 ft | 367 kts | 34° |
| 2026-05-06 02:32 | 38.85838 | -76.82668 | 11001 ft | 374 kts | 46° |
| 2026-05-06 02:32 | 38.87413 | -76.80005 | 11031 ft | 376 kts | 58° |
| 2026-05-06 02:33 | 38.88616 | -76.77032 | 11031 ft | 376 kts | 64° |
| 2026-05-06 02:33 | 38.89367 | -76.75025 | 11029 ft | 376 kts | 64° |
| 2026-05-06 02:33 | 38.92022 | -76.67952 | 11038 ft | 377 kts | 64° |
| 2026-05-06 02:34 | 38.93053 | -76.65202 | 11041 ft | 377 kts | 64° |
| 2026-05-06 02:34 | 38.94189 | -76.62174 | 11041 ft | 377 kts | 64° |
| 2026-05-06 02:34 | 38.95290 | -76.59120 | 11043 ft | 376 kts | 66° |
| 2026-05-06 02:34 | 38.96327 | -76.56028 | 11038 ft | 376 kts | 68° |
| 2026-05-06 02:35 | 38.97322 | -76.52922 | 11035 ft | 376 kts | 68° |
| 2026-05-06 02:35 | 38.98306 | -76.49803 | 11035 ft | 376 kts | 68° |
| 2026-05-06 02:35 | 38.99293 | -76.46689 | 11015 ft | 376 kts | 68° |
| 2026-05-06 02:35 | 39.00359 | -76.43627 | 11013 ft | 376 kts | 62° |
| 2026-05-06 02:36 | 39.01781 | -76.40814 | 11020 ft | 376 kts | 51° |
| 2026-05-06 02:36 | 39.03550 | -76.38347 | 11019 ft | 375 kts | 41° |
| 2026-05-06 02:36 | 39.05474 | -76.36084 | 11021 ft | 375 kts | 41° |
| 2026-05-06 02:36 | 39.07395 | -76.33805 | 11027 ft | 375 kts | 41° |
| 2026-05-06 02:37 | 39.09302 | -76.31525 | 11029 ft | 375 kts | 41° |
| 2026-05-06 02:37 | 39.11208 | -76.29236 | 11030 ft | 375 kts | 41° |
| 2026-05-06 02:37 | 39.13113 | -76.26947 | 11030 ft | 375 kts | 41° |
| 2026-05-06 02:37 | 39.15022 | -76.24655 | 11030 ft | 375 kts | 41° |
| 2026-05-06 02:38 | 39.16928 | -76.22367 | 11030 ft | 375 kts | 41° |
| 2026-05-06 02:38 | 39.18837 | -76.20079 | 11030 ft | 374 kts | 41° |
| 2026-05-06 02:38 | 39.20742 | -76.17793 | 11033 ft | 374 kts | 41° |
| 2026-05-06 02:38 | 39.22648 | -76.15509 | 11029 ft | 374 kts | 41° |
| 2026-05-06 02:39 | 39.24553 | -76.13227 | 11028 ft | 374 kts | 41° |
| 2026-05-06 02:39 | 39.26457 | -76.10939 | 11025 ft | 374 kts | 41° |
| 2026-05-06 02:39 | 39.28357 | -76.08650 | 11023 ft | 374 kts | 42° |
| 2026-05-06 02:39 | 39.30258 | -76.06352 | 11025 ft | 374 kts | 42° |
| 2026-05-06 02:40 | 39.32156 | -76.04057 | 11017 ft | 374 kts | 42° |
| 2026-05-06 02:40 | 39.34053 | -76.01764 | 11016 ft | 374 kts | 42° |
| 2026-05-06 02:40 | 39.35954 | -75.99467 | 11018 ft | 374 kts | 42° |
| 2026-05-06 02:40 | 39.37854 | -75.97169 | 11016 ft | 374 kts | 42° |
| 2026-05-06 02:41 | 39.39753 | -75.94872 | 11012 ft | 374 kts | 42° |
| 2026-05-06 02:41 | 39.41653 | -75.92578 | 11016 ft | 374 kts | 41° |
| 2026-05-06 02:41 | 39.43558 | -75.90275 | 10912 ft | 374 kts | 42° |
| 2026-05-06 02:41 | 39.45454 | -75.87992 | 10669 ft | 372 kts | 41° |
| 2026-05-06 02:42 | 39.47346 | -75.85722 | 10425 ft | 369 kts | 41° |
| 2026-05-06 02:42 | 39.49196 | -75.83500 | 10191 ft | 356 kts | 41° |
| 2026-05-06 02:42 | 39.50978 | -75.81353 | 9962 ft | 345 kts | 41° |
| 2026-05-06 02:42 | 39.52704 | -75.79261 | 9726 ft | 335 kts | 43° |
| 2026-05-06 02:43 | 39.54056 | -75.76863 | 9458 ft | 328 kts | 62° |
| 2026-05-06 02:43 | 39.54842 | -75.74135 | 9199 ft | 320 kts | 75° |
| 2026-05-06 02:43 | 39.55451 | -75.71398 | 8937 ft | 314 kts | 75° |
| 2026-05-06 02:43 | 39.55989 | -75.68942 | 8614 ft | 312 kts | 75° |
| 2026-05-06 02:44 | 39.56580 | -75.66243 | 8242 ft | 311 kts | 75° |
| 2026-05-06 02:44 | 39.57174 | -75.63544 | 7868 ft | 311 kts | 76° |
| 2026-05-06 02:44 | 39.57772 | -75.60863 | 7407 ft | 311 kts | 75° |
| 2026-05-06 02:44 | 39.58379 | -75.58169 | 7018 ft | 311 kts | 75° |
| 2026-05-06 02:45 | 39.58988 | -75.55481 | 6635 ft | 311 kts | 75° |
| 2026-05-06 02:45 | 39.59603 | -75.52786 | 6269 ft | 312 kts | 76° |
| 2026-05-06 02:45 | 39.60228 | -75.50086 | 6104 ft | 313 kts | 75° |
| 2026-05-06 02:45 | 39.60855 | -75.47391 | 5951 ft | 312 kts | 75° |
| 2026-05-06 02:46 | 39.61480 | -75.44698 | 5799 ft | 312 kts | 75° |
| 2026-05-06 02:46 | 39.62098 | -75.42002 | 5647 ft | 312 kts | 75° |
| 2026-05-06 02:46 | 39.62719 | -75.39305 | 5496 ft | 312 kts | 75° |
| 2026-05-06 02:46 | 39.63343 | -75.36621 | 5350 ft | 310 kts | 75° |
| 2026-05-06 02:47 | 39.63967 | -75.33947 | 5201 ft | 310 kts | 75° |
| 2026-05-06 02:47 | 39.64388 | -75.32138 | 5100 ft | 310 kts | 75° |